Blue Point, NY (11715)

2:34 PM EDT on May 25, 2015 (GMT -0400)
Patchogue PRBA | | Change Station
CLOSE
Current Station
Personal Weather Station
Location: Patchogue, NY
Elevation: 46 ft
Nearby Weather Stations

Elev 46 ft 40.78 °N, 73.02 °W | Updated 9 seconds ago

Partly Cloudy
Partly Cloudy
70.8 °F
Feels Like 74 °F
N
2.0
Wind Variable Wind from SSW
Gusts 8.0 mph

Today
High -- | Low -- °F
--% Chance of Precip.
Yesterday
High -- | Low -- °F
Precip. -- in
5:27 AM 8:11 PM
Waxing Crescent, 50% visible
Pressure 30.23 in
Visibility 10.0 miles
Clouds Few 7000 ft
Scattered Clouds 15000 ft
Mostly Cloudy 25000 ft
Heat Index 74 °F
Dew Point 61 °F
Humidity 72%
Rainfall 0.00 in
Snow Depth Not available.
UV 6 out of 12
Pollen 9.00 out of 12
Air Quality Not available.
Flu Activity Widespread
METAR KISP 251756Z 17010KT 10SM FEW070 SCT150 BKN250 22/14 A3023 RMK AO2 SLP235 T02220144 10228 20183 58013

More Conditions Fewer Conditions

Pressure 30.23 in
Visibility 10.0 miles
Clouds Few 7000 ft
Scattered Clouds 15000 ft
Mostly Cloudy 25000 ft
Heat Index 74 °F
Dew Point 61 °F
Humidity 72%
Rainfall 0.00 in
Snow Depth Not available.
UV 6 out of 12
Pollen 9.00 out of 12
Air Quality Not available.
Flu Activity Widespread
METAR KISP 251756Z 17010KT 10SM FEW070 SCT150 BKN250 22/14 A3023 RMK AO2 SLP235 T02220144 10228 20183 58013

More Conditions Fewer Conditions

10-Day Weather Forecast

Almanac

Astronomy

May. 25, 2015 Rise Set
Actual Time
Civil Twilight
Nautical Twilight
Astronomical Twilight
Moon
Length of Visible Light
Length of Day
Tomorrow will be .
, % of the Moon is Illuminated

Today's Extremes

State Highs State Lows

Community

WunderPhotos

Upload Photos

1,824,078 photos uploaded!

WunderBlogs® & News

Nearby

Air Quality

  Air Quality AQ Index Pollutant
Not available.

Snow Depth

Station Depth Elevation

Earthquake Activity

City Distance Mag. Time & Date
Minimum magnitude displayed is 2.5.

Coastal Water Temperatures

Place Temperature

Stations

Nearby Weather Stations

Station Location Temp. Windchill Dew Point Humidity Wind Precip. Elev Updated Type